createdAt,value
2023-04-03T00:04:31.417Z,10.73
2023-04-03T00:10:36.552Z,10.55
2023-04-03T00:16:40.069Z,10.13
2023-04-03T00:22:43.753Z,10.00
2023-04-03T00:28:48.684Z,8.98
2023-04-03T00:34:52.260Z,11.23
2023-04-03T00:40:55.990Z,10.65
2023-04-03T00:47:00.863Z,12.48
2023-04-03T00:53:04.743Z,10.93
2023-04-03T00:59:11.276Z,9.45
2023-04-03T01:05:20.699Z,11.77
2023-04-03T01:11:24.142Z,9.32
2023-04-03T01:17:31.772Z,10.52
2023-04-03T01:23:49.476Z,9.25
2023-04-03T01:29:53.068Z,10.13
2023-04-03T01:35:57.880Z,9.70
2023-04-03T01:42:01.355Z,8.80
2023-04-03T01:48:04.974Z,9.70
2023-04-03T01:54:09.734Z,10.65
2023-04-03T02:00:13.879Z,12.05
2023-04-03T02:06:17.321Z,11.45
2023-04-03T02:12:22.171Z,10.20
2023-04-03T02:18:25.834Z,9.80
2023-04-03T02:24:29.692Z,9.18
2023-04-03T02:30:35.237Z,12.68
2023-04-03T02:36:39.146Z,8.10
2023-04-03T02:42:42.561Z,9.98
2023-04-03T02:48:47.396Z,9.10
2023-04-03T02:54:50.901Z,9.43
2023-04-03T03:00:54.415Z,9.02
2023-04-03T03:06:59.278Z,9.00
2023-04-03T03:13:03.163Z,9.82
2023-04-03T03:19:07.833Z,8.23
2023-04-03T03:25:12.902Z,7.57
2023-04-03T03:31:16.540Z,9.18
2023-04-03T03:37:20.141Z,11.50
2023-04-03T03:43:25.117Z,8.77
2023-04-03T03:49:28.545Z,9.50
2023-04-03T03:55:31.946Z,9.75
2023-04-03T04:01:37.256Z,10.95
2023-04-03T04:07:40.702Z,9.95
2023-04-03T04:13:44.248Z,11.00
2023-04-03T04:19:49.005Z,9.60
2023-04-03T04:25:52.918Z,11.60
2023-04-03T04:31:56.299Z,9.45
2023-04-03T04:38:01.702Z,10.05
2023-04-03T04:44:05.505Z,11.45
2023-04-03T04:50:09.310Z,15.13
2023-04-03T04:56:14.163Z,14.50
2023-04-03T05:02:17.907Z,12.60
2023-04-03T05:08:21.377Z,11.90
2023-04-03T05:14:26.163Z,13.52
2023-04-03T05:20:29.809Z,10.65
2023-04-03T05:26:33.542Z,14.13
2023-04-03T05:32:38.390Z,12.25
2023-04-03T05:38:42.158Z,9.70
2023-04-03T05:44:47.852Z,12.35
2023-04-03T05:50:54.721Z,12.55
2023-04-03T05:57:00.805Z,11.02
2023-04-03T06:03:04.366Z,12.80
2023-04-03T06:09:09.417Z,10.20
2023-04-03T06:15:13.027Z,13.27
2023-04-03T06:21:16.577Z,19.15
2023-04-03T06:27:21.600Z,13.65
2023-04-03T06:33:25.013Z,14.63
2023-04-03T06:39:28.970Z,9.50
2023-04-03T06:45:33.816Z,8.35
2023-04-03T06:51:37.987Z,10.63
2023-04-03T06:57:41.563Z,10.15
2023-04-03T07:03:47.345Z,6.95
2023-04-03T07:09:51.076Z,7.93
2023-04-03T07:15:54.971Z,8.73
2023-04-03T07:21:59.858Z,7.07
2023-04-03T07:28:04.745Z,7.38
2023-04-03T07:34:08.157Z,6.35
2023-04-03T07:40:13.821Z,5.45
2023-04-03T07:46:18.608Z,5.28
2023-04-03T07:52:22.052Z,5.88
2023-04-03T07:58:27.080Z,4.70
2023-04-03T08:04:31.704Z,4.20
2023-04-03T08:10:36.033Z,6.53
2023-04-03T08:16:41.090Z,4.25
2023-04-03T08:22:44.694Z,5.13
2023-04-03T08:28:48.325Z,6.05
2023-04-03T08:34:53.250Z,6.10
2023-04-03T08:41:04.924Z,5.93
2023-04-03T08:47:14.699Z,7.18
2023-04-03T08:53:21.113Z,9.05
2023-04-03T08:59:28.191Z,7.65
2023-04-03T09:05:40.015Z,9.20
2023-04-03T09:11:49.524Z,6.60
2023-04-03T09:17:58.009Z,8.18
2023-04-03T09:24:02.621Z,10.45
2023-04-03T09:30:08.282Z,13.95
2023-04-03T09:36:12.192Z,9.63
2023-04-03T09:42:19.806Z,7.82
2023-04-03T09:48:25.916Z,6.97
2023-04-03T09:54:34.455Z,7.18
2023-04-03T10:00:39.747Z,7.40
2023-04-03T10:06:47.865Z,7.47
2023-04-03T10:12:51.372Z,7.10
2023-04-03T10:18:59.171Z,5.20
2023-04-03T10:25:07.492Z,10.13
2023-04-03T10:31:16.640Z,9.93
2023-04-03T10:37:23.216Z,7.25
2023-04-03T10:43:32.293Z,7.15
2023-04-03T10:49:50.010Z,4.07
2023-04-03T10:56:04.633Z,4.82
2023-04-03T11:02:16.446Z,4.55
2023-04-03T11:08:27.513Z,4.78
2023-04-03T11:14:35.789Z,7.18
2023-04-03T11:20:41.932Z,6.60
2023-04-03T11:26:46.347Z,3.67
2023-04-03T11:33:04.812Z,4.05
2023-04-03T11:39:18.603Z,4.07
2023-04-03T11:45:28.742Z,3.42
2023-04-03T11:51:42.586Z,5.80
2023-04-03T11:58:04.854Z,4.28
2023-04-03T12:04:15.162Z,5.53
2023-04-03T12:10:31.823Z,3.00
2023-04-03T12:16:45.927Z,4.63
2023-04-03T12:23:09.832Z,2.42
2023-04-03T12:29:20.784Z,2.00
2023-04-03T12:35:27.755Z,2.05
2023-04-03T12:41:36.995Z,1.90
2023-04-03T12:47:41.099Z,1.92
2023-04-03T12:53:47.158Z,2.75
2023-04-03T12:59:50.947Z,4.68
2023-04-03T13:05:54.536Z,3.45
2023-04-03T13:12:00.480Z,3.55
2023-04-03T13:18:03.925Z,4.50
2023-04-03T13:24:15.536Z,3.25
2023-04-03T13:30:27.575Z,3.03
2023-04-03T13:36:33.581Z,2.65
2023-04-03T13:42:38.176Z,3.13
2023-04-03T13:48:44.670Z,2.38
2023-04-03T13:54:49.864Z,2.67
2023-04-03T14:00:54.427Z,2.70
2023-04-03T14:06:59.518Z,2.50
2023-04-03T14:13:03.188Z,5.82
2023-04-03T14:19:07.404Z,2.78
2023-04-03T14:25:12.308Z,4.25
2023-04-03T14:31:16.168Z,4.50
2023-04-03T14:37:21.237Z,4.22
2023-04-03T14:43:27.449Z,4.38
2023-04-03T14:49:31.484Z,4.80
2023-04-03T14:55:36.168Z,2.97
2023-04-03T15:01:41.062Z,2.28
2023-04-03T15:07:45.524Z,4.40
2023-04-03T15:13:48.967Z,3.63
2023-04-03T15:19:53.760Z,3.95
2023-04-03T15:25:57.620Z,2.80
2023-04-03T15:32:01.224Z,2.25
2023-04-03T15:38:06.143Z,2.53
2023-04-03T15:44:09.545Z,3.97
2023-04-03T15:50:13.976Z,2.53
2023-04-03T15:56:18.822Z,5.78
2023-04-03T16:02:22.397Z,2.72
2023-04-03T16:08:26.144Z,3.45
2023-04-03T16:14:31.586Z,3.75
2023-04-03T16:20:35.102Z,2.70
2023-04-03T16:26:38.583Z,5.15
2023-04-03T16:32:43.647Z,3.38
2023-04-03T16:38:47.191Z,1.88
2023-04-03T16:44:50.659Z,3.63
2023-04-03T16:50:55.680Z,5.82
2023-04-03T16:56:59.296Z,2.63
2023-04-03T17:03:03.098Z,2.85
2023-04-03T17:09:08.424Z,4.63
2023-04-03T17:15:12.198Z,3.30
2023-04-03T17:21:16.194Z,2.63
2023-04-03T17:27:20.965Z,3.45
2023-04-03T17:33:24.673Z,3.55
2023-04-03T17:39:28.367Z,1.65
2023-04-03T17:45:33.350Z,1.95
2023-04-03T17:51:36.838Z,3.45
2023-04-03T17:57:40.303Z,2.00
2023-04-03T18:03:46.083Z,2.90
2023-04-03T18:09:50.199Z,2.10
2023-04-03T18:15:53.625Z,5.63
2023-04-03T18:21:59.540Z,2.10
2023-04-03T18:28:06.502Z,1.60
2023-04-03T18:34:09.975Z,5.72
2023-04-03T18:40:15.404Z,2.85
2023-04-03T18:46:19.821Z,3.53
2023-04-03T18:52:25.308Z,3.08
2023-04-03T18:58:30.188Z,2.15
2023-04-03T19:04:33.756Z,4.75
2023-04-03T19:10:37.253Z,5.97
2023-04-03T19:16:42.101Z,4.07
2023-04-03T19:22:45.601Z,4.80
2023-04-03T19:28:50.701Z,3.65
2023-04-03T19:34:55.510Z,4.05
2023-04-03T19:40:58.977Z,3.88
2023-04-03T19:47:03.078Z,4.88
2023-04-03T19:53:11.252Z,4.70
2023-04-03T19:59:15.178Z,6.05
2023-04-03T20:05:18.849Z,5.40
2023-04-03T20:11:23.942Z,5.70
2023-04-03T20:17:27.813Z,6.60
2023-04-03T20:23:31.780Z,4.63
2023-04-03T20:29:38.513Z,5.10
2023-04-03T20:35:41.955Z,5.55
2023-04-03T20:41:45.428Z,4.95
2023-04-03T20:47:52.013Z,4.88
2023-04-03T20:53:55.523Z,6.10
2023-04-03T20:59:58.931Z,4.22
2023-04-03T21:06:03.949Z,7.03
2023-04-03T21:12:26.130Z,4.13
2023-04-03T21:18:48.287Z,3.40
2023-04-03T21:24:53.090Z,5.65
2023-04-03T21:30:56.507Z,3.63
2023-04-03T21:37:03.093Z,5.00
2023-04-03T21:43:08.045Z,4.45
2023-04-03T21:49:11.599Z,6.50
2023-04-03T21:55:15.746Z,5.80
2023-04-03T22:01:21.170Z,4.97
2023-04-03T22:07:24.671Z,4.70
2023-04-03T22:13:28.079Z,3.92
2023-04-03T22:19:32.858Z,6.25
2023-04-03T22:25:36.364Z,3.92
2023-04-03T22:31:41.736Z,3.42
2023-04-03T22:37:47.114Z,4.43
2023-04-03T22:43:50.800Z,4.18
2023-04-03T22:49:54.222Z,3.53
2023-04-03T22:55:59.729Z,4.13
2023-04-03T23:02:03.255Z,3.53
2023-04-03T23:08:07.474Z,2.90
2023-04-03T23:14:12.252Z,5.85
2023-04-03T23:20:15.664Z,5.93
2023-04-03T23:26:19.162Z,6.28
2023-04-03T23:32:24.206Z,6.00
2023-04-03T23:38:27.831Z,5.75
2023-04-03T23:44:31.836Z,4.68
2023-04-03T23:50:37.374Z,4.10
2023-04-03T23:56:41.042Z,4.38
